Time;durP1;ratioP1;P1;durP2;ratioP2;P2;SDS_P1;SDS_P2;PMS_P1;PMS_P2;Temp;Humidity;BMP_temperature;BMP_pressure;BME280_temperature;BME280_humidity;BME280_pressure;Samples;Min_cycle;Max_cycle;Signal;HPM_P1;HPM_P2
2020/12/01 00:00:23;;;;;;;31.8;23.9;;;;;;;-0.25;77.8457;99355.72;;;;
2020/12/01 00:10:21;;;;;;;30.2;23;;;;;;;-0.32;76.85352;99351.51;;;;
2020/12/01 00:20:20;;;;;;;33.6;18.9;;;;;;;-0.39;76.77441;99348.92;;;;
2020/12/01 00:30:18;;;;;;;30.6;22.6;;;;;;;-0.34;76.55371;99351.7;;;;
2020/12/01 00:40:17;;;;;;;36.8;21.2;;;;;;;-0.39;76.22461;99351.57;;;;
2020/12/01 00:50:11;;;;;;;28.9;15.7;;;;;;;-0.47;76.10059;99351.02;;;;
2020/12/01 01:00:09;;;;;;;29.8;18.6;;;;;;;-0.65;75.83789;99349.14;;;;
2020/12/01 01:10:07;;;;;;;26.7;15.3;;;;;;;-0.69;75.85352;99340;;;;
2020/12/01 01:20:04;;;;;;;22.8;17.7;;;;;;;-0.8;76.21777;99324.85;;;;
2020/12/01 01:30:02;;;;;;;22.6;15.6;;;;;;;-0.89;76.7832;99308.42;;;;
2020/12/01 01:40:00;;;;;;;27.1;15.8;;;;;;;-1.09;77.375;99311.23;;;;
2020/12/01 01:49:57;;;;;;;23.7;17;;;;;;;-1.3;78.55273;99297.53;;;;
2020/12/01 01:59:55;;;;;;;22.5;14;;;;;;;-1.53;78.47852;99287.52;;;;
2020/12/01 02:09:52;;;;;;;19.2;12.7;;;;;;;-1.76;77.99707;99279.3;;;;
2020/12/01 02:19:50;;;;;;;18;11.5;;;;;;;-2.04;78.1416;99279.63;;;;
2020/12/01 02:29:47;;;;;;;18;12.7;;;;;;;-2.29;78.76465;99282.14;;;;
2020/12/01 02:39:44;;;;;;;18.1;11.7;;;;;;;-2.49;78.45313;99270.02;;;;
2020/12/01 02:49:42;;;;;;;15.3;10.8;;;;;;;-2.68;79.59961;99275.15;;;;
2020/12/01 02:59:39;;;;;;;19.7;11;;;;;;;-2.68;79.38086;99266.42;;;;
2020/12/01 03:09:36;;;;;;;16.1;11.8;;;;;;;-2.74;80.01367;99264.61;;;;
2020/12/01 03:19:34;;;;;;;20.8;10.2;;;;;;;-2.68;79.19434;99255.86;;;;
2020/12/01 03:29:31;;;;;;;19.8;9.5;;;;;;;-2.74;78.73535;99254.06;;;;
2020/12/01 03:39:28;;;;;;;17.9;9.2;;;;;;;-2.81;78.53613;99255.89;;;;
2020/12/01 03:49:26;;;;;;;13.8;7.6;;;;;;;-3.02;78.35547;99254.3;;;;
2020/12/01 03:59:23;;;;;;;16.3;9.8;;;;;;;-3.23;78.39258;99252.64;;;;
2020/12/01 04:09:20;;;;;;;12.5;7.9;;;;;;;-3.47;78.73145;99253.23;;;;
2020/12/01 04:19:21;;;;;;;14.2;8.1;;;;;;;-3.7;79.28809;99245.72;;;;
2020/12/01 04:29:16;;;;;;;13.1;9.1;;;;;;;-3.87;79.76855;99233.93;;;;
2020/12/01 04:39:12;;;;;;;12.7;7;;;;;;;-4.02;80.2627;99229.82;;;;
2020/12/01 04:49:09;;;;;;;15.4;7.7;;;;;;;-4.24;80.26563;99229.98;;;;
2020/12/01 04:59:06;;;;;;;13.7;7;;;;;;;-4.39;80.63965;99237.19;;;;
2020/12/01 05:09:04;;;;;;;16.3;7.4;;;;;;;-4.41;81.58008;99227.88;;;;
2020/12/01 05:19:01;;;;;;;14;8.8;;;;;;;-4.49;81.76074;99215.7;;;;
2020/12/01 05:28:58;;;;;;;14;8;;;;;;;-4.51;82.01855;99220.33;;;;
2020/12/01 05:38:55;;;;;;;14.1;9.4;;;;;;;-4.57;81.75781;99211.41;;;;
2020/12/01 05:48:52;;;;;;;17.4;9.3;;;;;;;-4.79;81.99707;99214.34;;;;
2020/12/01 05:58:52;;;;;;;12;8.4;;;;;;;-4.99;82.72852;99205.5;;;;
2020/12/01 06:08:46;;;;;;;32.6;19.2;;;;;;;-5.13;83.98438;99213.3;;;;
2020/12/01 06:18:43;;;;;;;26.2;15.2;;;;;;;-5.11;83.50879;99213.12;;;;
2020/12/01 06:28:44;;;;;;;18.9;12.9;;;;;;;-5.1;82.62207;99218.16;;;;
2020/12/01 06:38:37;;;;;;;17;10.9;;;;;;;-5.01;82.80957;99212.77;;;;
2020/12/01 06:48:37;;;;;;;15.6;7.8;;;;;;;-4.88;81.91309;99210.22;;;;
2020/12/01 06:58:40;;;;;;;16.3;8.7;;;;;;;-4.76;81.29785;99206.88;;;;
2020/12/01 07:08:29;;;;;;;15.8;10.4;;;;;;;-4.64;80.96094;99200.05;;;;
2020/12/01 07:18:27;;;;;;;15.7;7.3;;;;;;;-4.41;80.39453;99194.5;;;;
2020/12/01 07:28:25;;;;;;;9.8;7;;;;;;;-4.16;79.58398;99195.58;;;;
2020/12/01 07:38:30;;;;;;;17.3;9.3;;;;;;;-3.91;79.4873;99195.84;;;;
2020/12/01 07:48:21;;;;;;;12.1;8.9;;;;;;;-3.69;79.65137;99199.94;;;;
2020/12/01 07:58:19;;;;;;;17.2;11.1;;;;;;;-3.24;78.30371;99205.42;;;;
2020/12/01 08:08:12;;;;;;;20.7;9.8;;;;;;;-2.92;75.58691;99203.77;;;;
2020/12/01 08:18:12;;;;;;;14.9;9.5;;;;;;;-2.61;76.76953;99214.45;;;;
2020/12/01 08:28:07;;;;;;;17.6;11.2;;;;;;;-2.29;74.62695;99210.87;;;;
2020/12/01 08:38:04;;;;;;;16.8;10.9;;;;;;;-1.93;74.02051;99228.79;;;;
2020/12/01 08:48:01;;;;;;;17.8;13.3;;;;;;;-1.63;72.85547;99224.53;;;;
2020/12/01 08:57:59;;;;;;;16.8;12.6;;;;;;;-1.31;71.98633;99219.23;;;;
2020/12/01 09:18:00;;;;;;;19.1;12.3;;;;;;;-0.72;68.9502;99222.16;;;;
2020/12/01 09:27:51;;;;;;;16.6;9.5;;;;;;;-0.42;68.67773;99216.16;;;;
2020/12/01 09:37:49;;;;;;;20.2;10.8;;;;;;;-0.21;66.96777;99218.36;;;;
2020/12/01 09:47:49;;;;;;;19.6;13.1;;;;;;;0.08;66.25293;99209.61;;;;
2020/12/01 09:57:54;;;;;;;14.1;10.1;;;;;;;0.37;65.22656;99190.24;;;;
2020/12/01 10:37:35;;;;;;;19.2;10.9;;;;;;;1.38;62.02148;99176.69;;;;
2020/12/01 10:47:33;;;;;;;18.1;11.4;;;;;;;1.77;60.28906;99167.09;;;;
2020/12/01 10:57:30;;;;;;;22.2;11.7;;;;;;;1.57;59.38477;99179.98;;;;
2020/12/01 11:07:28;;;;;;;15.3;10.6;;;;;;;1.7;59.98047;99182.36;;;;
2020/12/01 11:17:26;;;;;;;17.8;11.2;;;;;;;2.01;59.93555;99179.25;;;;
2020/12/01 11:27:24;;;;;;;15.2;11.2;;;;;;;2.07;59.81934;99179.36;;;;
2020/12/01 11:37:22;;;;;;;16;11.2;;;;;;;2.19;59.18066;99170.28;;;;
2020/12/01 11:47:20;;;;;;;17.2;12.3;;;;;;;2.57;58.46582;99156.3;;;;
2020/12/01 11:57:18;;;;;;;21.1;14.1;;;;;;;2.43;58.39063;99149.7;;;;
2020/12/01 12:07:15;;;;;;;15.6;10.6;;;;;;;2.54;56.64648;99152.27;;;;
2020/12/01 12:17:13;;;;;;;17.2;12.3;;;;;;;2.67;58.22266;99140.52;;;;
2020/12/01 12:27:11;;;;;;;13.6;10.9;;;;;;;2.71;57.68066;99138.18;;;;
2020/12/01 12:37:10;;;;;;;14.7;11.8;;;;;;;2.61;58.15723;99145.98;;;;
2020/12/01 12:47:10;;;;;;;15.8;10.7;;;;;;;2.54;59.66406;99136.31;;;;
2020/12/01 12:57:06;;;;;;;20.2;11.7;;;;;;;2.32;61.91211;99137.28;;;;
2020/12/01 13:07:03;;;;;;;17.6;12.7;;;;;;;1.97;60.0166;99145.44;;;;
2020/12/01 13:17:01;;;;;;;15.2;11.5;;;;;;;1.73;59.89551;99158.01;;;;
2020/12/01 13:26:59;;;;;;;20.5;12.2;;;;;;;1.36;60.91895;99141.57;;;;
2020/12/01 13:36:57;;;;;;;16.9;11.9;;;;;;;1.28;61.06348;99149.11;;;;
2020/12/01 13:46:55;;;;;;;19.1;12.3;;;;;;;0.88;60.89453;99156.97;;;;
2020/12/01 13:56:52;;;;;;;13.6;11.8;;;;;;;0.61;61.59863;99156.62;;;;
2020/12/01 14:06:50;;;;;;;18.6;13.5;;;;;;;0.25;62.6416;99164.72;;;;
2020/12/01 14:16:48;;;;;;;22.9;14;;;;;;;-0.12;63.35059;99162.19;;;;
2020/12/01 14:26:46;;;;;;;44.8;24.9;;;;;;;-0.53;64.82324;99186.75;;;;
2020/12/01 14:36:43;;;;;;;31.7;18.3;;;;;;;-0.9;66.56348;99185.09;;;;
2020/12/01 14:46:41;;;;;;;21.8;17.1;;;;;;;-1.23;67.72168;99188.05;;;;
2020/12/01 14:56:38;;;;;;;48.3;38.4;;;;;;;-1.59;69.5127;99196.66;;;;
2020/12/01 15:06:38;;;;;;;38.9;31.8;;;;;;;-2.05;70.37012;99202.23;;;;
2020/12/01 15:16:33;;;;;;;71.6;53.1;;;;;;;-2.3;72.03906;99198.71;;;;
2020/12/01 15:26:31;;;;;;;42.8;32.4;;;;;;;-2.46;73.05273;99204.44;;;;
2020/12/01 15:36:28;;;;;;;64.6;42;;;;;;;-2.67;74.66992;99202.88;;;;
2020/12/01 15:46:25;;;;;;;47;38.7;;;;;;;-2.77;74.62891;99215.69;;;;
2020/12/01 15:56:32;;;;;;;107.5;60.7;;;;;;;-2.83;75.78906;99232.34;;;;
2020/12/01 16:06:25;;;;;;;78.3;49.6;;;;;;;-2.82;76.05273;99225.25;;;;
2020/12/01 16:16:17;;;;;;;69.2;44.1;;;;;;;-3.07;76.00977;99239.08;;;;
2020/12/01 16:26:22;;;;;;;65;45.5;;;;;;;-3.09;76.76074;99243.72;;;;
2020/12/01 16:36:14;;;;;;;54.3;42.5;;;;;;;-3.03;76.375;99254.48;;;;
2020/12/01 16:46:29;;;;;;;63.8;41.7;;;;;;;-3.19;76.09668;99253.05;;;;
2020/12/01 16:56:06;;;;;;;44.6;35;;;;;;;-3.3;76.32813;99257.13;;;;
2020/12/01 17:06:03;;;;;;;60;47.6;;;;;;;-3.58;77.47754;99267.02;;;;
2020/12/01 17:16:00;;;;;;;69.4;44.4;;;;;;;-3.9;79.41309;99265.11;;;;
2020/12/01 17:25:58;;;;;;;53.1;37.7;;;;;;;-4.15;80.7832;99265.63;;;;
2020/12/01 17:35:55;;;;;;;55.6;36.4;;;;;;;-4.36;80.02441;99260.47;;;;
2020/12/01 17:45:52;;;;;;;67.2;45.3;;;;;;;-4.49;79.93359;99267.48;;;;
2020/12/01 17:55:49;;;;;;;54.9;37.1;;;;;;;-4.66;81.3252;99280.14;;;;
2020/12/01 18:05:46;;;;;;;57.3;36.5;;;;;;;-4.8;81.32031;99288.94;;;;
2020/12/01 18:15:44;;;;;;;88.1;57.4;;;;;;;-4.98;81.06836;99291.23;;;;
2020/12/01 18:25:40;;;;;;;88.5;59.4;;;;;;;-5.14;81.12402;99310.72;;;;
2020/12/01 18:35:37;;;;;;;107.5;75.8;;;;;;;-5.13;82.08496;99321.03;;;;
2020/12/01 18:45:34;;;;;;;95.3;68.1;;;;;;;-5.18;82.68262;99323.42;;;;
2020/12/01 18:55:31;;;;;;;176.1;109.9;;;;;;;-5.2;83.07813;99335.91;;;;
2020/12/01 19:05:29;;;;;;;110.5;75.5;;;;;;;-5.22;84.08398;99340.56;;;;
2020/12/01 19:15:26;;;;;;;130.4;79;;;;;;;-5.25;84.83594;99335.69;;;;
2020/12/01 19:25:22;;;;;;;121.6;72.2;;;;;;;-5.21;85.52832;99362.39;;;;
2020/12/01 19:35:20;;;;;;;115;71.6;;;;;;;-5.29;84.73145;99358.07;;;;
2020/12/01 19:45:17;;;;;;;102.1;65.6;;;;;;;-5.35;84.1875;99361.45;;;;
2020/12/01 19:55:14;;;;;;;91.2;61.4;;;;;;;-5.36;85.5293;99377.38;;;;
2020/12/01 20:05:12;;;;;;;89.9;63.4;;;;;;;-5.33;86.05566;99382.27;;;;
2020/12/01 20:15:08;;;;;;;90.8;58.4;;;;;;;-5.38;85.55664;99382.02;;;;
2020/12/01 20:25:04;;;;;;;101.5;61.8;;;;;;;-5.44;84.68945;99396.69;;;;
2020/12/01 20:35:01;;;;;;;96.2;53.1;;;;;;;-5.49;85.12305;99390.38;;;;
2020/12/01 20:44:58;;;;;;;86.5;59.3;;;;;;;-5.57;85.10938;99409.67;;;;
2020/12/01 20:54:55;;;;;;;82;54.7;;;;;;;-5.71;83.41113;99402.63;;;;
2020/12/01 21:04:52;;;;;;;74.8;48.7;;;;;;;-5.82;82.99805;99413.59;;;;
2020/12/01 21:14:49;;;;;;;102.9;61.3;;;;;;;-5.97;84.83105;99420.7;;;;
2020/12/01 21:24:46;;;;;;;95.2;58.1;;;;;;;-6.04;85.4248;99417.17;;;;
2020/12/01 21:34:43;;;;;;;109.2;59;;;;;;;-6.13;83.88184;99422.5;;;;
2020/12/01 21:44:40;;;;;;;111.7;74.7;;;;;;;-6.16;84.17871;99415;;;;
2020/12/01 21:54:37;;;;;;;87.2;52.2;;;;;;;-6.22;83.23535;99418.34;;;;
2020/12/01 22:04:46;;;;;;;98.6;58.9;;;;;;;-6.27;83.875;99425.92;;;;
2020/12/01 22:14:30;;;;;;;77.5;49.8;;;;;;;-6.18;85.07324;99432.7;;;;
2020/12/01 22:24:27;;;;;;;84.6;49;;;;;;;-6.28;84.96484;99426.13;;;;
2020/12/01 22:34:47;;;;;;;92.4;56.7;;;;;;;-6.32;84.15723;99420.42;;;;
2020/12/01 22:44:42;;;;;;;78.5;45.5;;;;;;;-6.35;83.70605;99430.45;;;;
2020/12/01 22:54:28;;;;;;;92.7;56;;;;;;;-6.47;83.08789;99435.3;;;;
2020/12/01 23:04:15;;;;;;;108.9;59;;;;;;;-6.54;82.87891;99438.8;;;;
2020/12/01 23:14:19;;;;;;;106.2;60.6;;;;;;;-6.65;83.9502;99424.31;;;;
2020/12/01 23:24:12;;;;;;;111.6;61.5;;;;;;;-6.7;84.30664;99430.08;;;;
2020/12/01 23:34:05;;;;;;;93.9;63.4;;;;;;;-6.69;84.77539;99423.85;;;;
2020/12/01 23:44:02;;;;;;;120.7;66.2;;;;;;;-6.65;84.44727;99424.31;;;;
2020/12/01 23:54:00;;;;;;;102.3;56.4;;;;;;;-6.4;83.67383;99430.16;;;;
